Time;durP1;ratioP1;P1;durP2;ratioP2;P2;SDS_P1;SDS_P2;PMS_P1;PMS_P2;Temp;Humidity;BMP_temperature;BMP_pressure;BME280_temperature;BME280_humidity;BME280_pressure;Samples;Min_cycle;Max_cycle;Signal;HPM_P1;HPM_P2
2023/09/26 00:02:19;;;;;;;9.68;6.47;;;;;;;15.30;100.00;102063.56;5048281;28;20060;-54
2023/09/26 00:04:48;;;;;;;8.95;5.85;;;;;;;15.41;100.00;102054.91;5048334;28;20102;-54
2023/09/26 00:07:16;;;;;;;9.05;5.90;;;;;;;15.29;100.00;102053.91;5047718;28;20090;-54
2023/09/26 00:09:45;;;;;;;9.05;5.82;;;;;;;15.25;100.00;102051.56;5046961;28;20044;-53
2023/09/26 00:12:15;;;;;;;9.93;6.10;;;;;;;15.34;100.00;102057.09;5050457;28;20071;-52
2023/09/26 00:14:43;;;;;;;10.95;6.32;;;;;;;15.24;100.00;102050.69;5048322;28;20500;-54
2023/09/26 00:17:11;;;;;;;9.93;6.03;;;;;;;15.12;100.00;102057.69;5047633;28;20040;-54
2023/09/26 00:19:39;;;;;;;10.32;6.10;;;;;;;15.03;100.00;102064.41;5048199;28;20059;-54
2023/09/26 00:22:07;;;;;;;10.57;6.25;;;;;;;14.97;100.00;102051.56;5048161;28;20053;-53
2023/09/26 00:24:36;;;;;;;10.50;5.82;;;;;;;14.98;100.00;102052.41;5047362;28;20056;-53
2023/09/26 00:27:04;;;;;;;11.23;5.68;;;;;;;14.94;100.00;102053.56;5047943;28;20120;-53
2023/09/26 00:29:33;;;;;;;9.55;5.68;;;;;;;14.96;100.00;102049.88;5049108;28;20076;-53
2023/09/26 00:32:03;;;;;;;9.43;6.43;;;;;;;14.92;100.00;102042.22;5046266;28;20045;-53
2023/09/26 00:34:31;;;;;;;8.63;6.00;;;;;;;14.84;100.00;102045.38;5047647;28;20147;-52
2023/09/26 00:37:00;;;;;;;9.10;5.88;;;;;;;14.78;100.00;102036.03;5046360;28;20041;-51
2023/09/26 00:39:29;;;;;;;8.93;5.82;;;;;;;14.65;100.00;102040.38;5048867;28;20378;-53
2023/09/26 00:41:57;;;;;;;8.43;5.95;;;;;;;14.62;100.00;102052.00;5049232;28;20392;-54
2023/09/26 00:44:25;;;;;;;11.23;5.82;;;;;;;14.56;100.00;102060.34;5048030;28;20056;-54
2023/09/26 00:46:55;;;;;;;10.38;5.85;;;;;;;14.55;100.00;102050.69;5047172;28;20051;-53
2023/09/26 00:49:23;;;;;;;9.05;6.30;;;;;;;14.46;100.00;102051.25;5051146;28;20139;-51
2023/09/26 00:51:51;;;;;;;9.70;6.60;;;;;;;14.41;100.00;102042.75;5051054;28;20124;-54
2023/09/26 00:54:20;;;;;;;9.15;6.20;;;;;;;14.41;100.00;102051.56;5051189;28;20423;-55
2023/09/26 00:56:48;;;;;;;9.30;6.57;;;;;;;14.39;100.00;102042.00;5049529;28;20056;-55
2023/09/26 00:59:16;;;;;;;8.40;6.30;;;;;;;14.34;100.00;102044.91;5047991;28;20037;-54
2023/09/26 01:01:45;;;;;;;12.05;6.30;;;;;;;14.41;100.00;102045.41;5050612;28;20059;-55
2023/09/26 01:04:15;;;;;;;11.20;6.35;;;;;;;14.32;100.00;102045.03;5050478;28;20135;-54
2023/09/26 01:06:43;;;;;;;11.18;6.75;;;;;;;14.31;100.00;102050.41;5048377;28;20052;-54
2023/09/26 01:09:14;;;;;;;9.68;6.25;;;;;;;14.23;100.00;102048.22;5047004;28;20041;-51
2023/09/26 01:11:43;;;;;;;13.38;7.15;;;;;;;14.18;100.00;102050.34;5046012;28;20867;-53
2023/09/26 01:14:11;;;;;;;10.15;6.45;;;;;;;14.13;100.00;102047.13;5047436;28;20053;-55
2023/09/26 01:16:40;;;;;;;9.30;6.45;;;;;;;14.18;100.00;102048.53;5046250;28;20100;-53
2023/09/26 01:19:08;;;;;;;11.65;6.45;;;;;;;14.11;100.00;102038.41;5047797;28;20045;-54
2023/09/26 01:21:37;;;;;;;10.60;7.15;;;;;;;14.04;100.00;102030.00;5048333;28;20053;-53
2023/09/26 01:24:07;;;;;;;9.48;6.68;;;;;;;14.06;100.00;102028.13;5051345;28;20053;-55
2023/09/26 01:26:37;;;;;;;8.70;6.20;;;;;;;14.08;100.00;102020.09;5049684;28;20376;-55
2023/09/26 01:29:08;;;;;;;10.95;7.35;;;;;;;14.01;100.00;102020.44;5054466;28;20048;-53
2023/09/26 01:31:36;;;;;;;9.38;6.40;;;;;;;13.98;100.00;102018.00;5054523;28;20075;-53
2023/09/26 01:34:05;;;;;;;10.20;7.35;;;;;;;13.95;100.00;102018.19;5052411;28;20041;-54
2023/09/26 01:36:33;;;;;;;11.35;7.35;;;;;;;13.86;100.00;102022.25;5050492;28;20423;-52
2023/09/26 01:39:01;;;;;;;9.88;6.88;;;;;;;13.84;100.00;102016.19;5050476;28;20049;-54
2023/09/26 01:41:31;;;;;;;10.25;6.88;;;;;;;13.84;100.00;102012.72;5049329;28;20047;-53
2023/09/26 01:43:59;;;;;;;11.70;7.60;;;;;;;13.78;100.00;102013.06;5050633;28;20474;-54
2023/09/26 01:46:27;;;;;;;10.20;7.72;;;;;;;13.74;100.00;102019.47;5050329;28;20044;-52
2023/09/26 01:48:55;;;;;;;10.45;7.65;;;;;;;13.70;100.00;102013.53;5049782;28;20160;-54
2023/09/26 01:51:24;;;;;;;10.60;7.68;;;;;;;13.71;100.00;102015.22;5050519;28;20065;-52
2023/09/26 01:53:52;;;;;;;12.20;8.40;;;;;;;13.68;100.00;102023.34;5050327;28;20049;-54
2023/09/26 01:56:20;;;;;;;10.70;8.02;;;;;;;13.67;100.00;102025.16;5049348;28;20073;-54
2023/09/26 01:58:49;;;;;;;11.75;7.60;;;;;;;13.73;100.00;102025.72;5052730;28;20052;-53
2023/09/26 02:01:20;;;;;;;11.23;7.63;;;;;;;13.74;100.00;102027.41;5053963;28;20124;-54
2023/09/26 02:03:50;;;;;;;10.55;7.63;;;;;;;13.65;100.00;102024.38;5053869;28;20048;-53
2023/09/26 02:06:19;;;;;;;12.23;7.72;;;;;;;13.64;100.00;102022.66;5053932;28;20084;-54
2023/09/26 02:08:47;;;;;;;11.38;8.35;;;;;;;13.58;100.00;102028.34;5051704;28;20055;-54
2023/09/26 02:11:15;;;;;;;11.50;8.18;;;;;;;13.58;100.00;102017.75;5048747;28;20069;-53
2023/09/26 02:13:43;;;;;;;10.93;8.30;;;;;;;13.60;100.00;102007.94;5050039;28;20059;-54
2023/09/26 02:16:13;;;;;;;12.82;8.00;;;;;;;13.60;100.00;102002.66;5050062;28;20493;-54
2023/09/26 02:18:44;;;;;;;;;;;;;;;13.50;100.00;101991.78;5050958;28;20124;-53
2023/09/26 02:21:16;;;;;;;12.90;8.18;;;;;;;13.45;100.00;101999.13;5048761;28;19924;-54
2023/09/26 02:23:44;;;;;;;11.43;8.38;;;;;;;13.42;100.00;101998.47;5052221;28;20051;-54
2023/09/26 02:26:18;;;;;;;11.30;8.63;;;;;;;13.39;100.00;102006.56;5047153;28;20469;-52
2023/09/26 02:28:46;;;;;;;13.57;8.73;;;;;;;13.33;100.00;102003.31;5049328;28;20499;-53
2023/09/26 02:31:17;;;;;;;11.50;8.27;;;;;;;13.46;100.00;101997.34;5050038;28;20094;-55
2023/09/26 02:33:45;;;;;;;12.10;8.43;;;;;;;13.48;100.00;102001.59;5049294;28;20053;-53
2023/09/26 02:36:13;;;;;;;12.48;7.80;;;;;;;13.48;100.00;101996.31;5049222;28;20140;-54
2023/09/26 02:38:42;;;;;;;12.82;8.95;;;;;;;13.46;100.00;101998.19;5049910;28;20373;-53
2023/09/26 02:41:10;;;;;;;11.68;8.32;;;;;;;13.48;100.00;102006.03;5047730;28;20049;-53
2023/09/26 02:43:38;;;;;;;12.32;7.95;;;;;;;13.43;100.00;102008.94;5049894;28;20481;-53
2023/09/26 02:46:07;;;;;;;11.35;8.50;;;;;;;13.33;100.00;102000.69;5049572;28;20135;-54
2023/09/26 02:48:36;;;;;;;12.50;8.63;;;;;;;13.35;100.00;102004.09;5051996;28;20115;-55
2023/09/26 02:51:05;;;;;;;12.00;8.82;;;;;;;13.40;100.00;102002.97;5049213;28;20145;-54
2023/09/26 02:53:33;;;;;;;11.35;8.27;;;;;;;13.42;100.00;101995.84;5051710;28;20055;-54
2023/09/26 02:56:01;;;;;;;10.90;8.23;;;;;;;13.29;100.00;101993.88;5048381;28;20500;-51
2023/09/26 02:58:29;;;;;;;12.20;8.48;;;;;;;13.23;100.00;101999.50;5049083;28;20052;-53
2023/09/26 03:00:57;;;;;;;13.10;8.18;;;;;;;13.31;100.00;101994.63;5049035;28;20151;-52
2023/09/26 03:03:25;;;;;;;10.52;8.18;;;;;;;13.33;100.00;101990.13;5050510;28;20112;-53
2023/09/26 03:05:55;;;;;;;11.30;7.88;;;;;;;13.39;100.00;101988.06;5052631;28;20045;-53
2023/09/26 03:08:23;;;;;;;11.77;7.93;;;;;;;13.34;100.00;101986.50;5049859;28;20139;-53
2023/09/26 03:10:52;;;;;;;10.88;7.50;;;;;;;13.33;100.00;101982.19;5047304;28;20535;-52
2023/09/26 03:13:20;;;;;;;11.82;7.75;;;;;;;13.31;100.00;101981.41;5052596;28;20661;-52
2023/09/26 03:15:55;;;;;;;12.65;8.05;;;;;;;13.29;100.00;101972.75;5052824;28;20430;-54
2023/09/26 03:18:24;;;;;;;10.95;7.88;;;;;;;13.31;100.00;101972.66;5050950;28;20045;-55
2023/09/26 03:20:52;;;;;;;11.15;7.25;;;;;;;13.22;100.00;101973.19;5052272;28;20047;-53
2023/09/26 03:23:22;;;;;;;11.27;8.02;;;;;;;13.19;100.00;101964.47;5049043;28;20061;-55
2023/09/26 03:25:51;;;;;;;11.45;7.88;;;;;;;13.20;100.00;101965.34;5046853;28;20090;-54
2023/09/26 03:28:19;;;;;;;12.00;8.02;;;;;;;13.15;100.00;101964.75;5052641;28;20045;-52
2023/09/26 03:30:47;;;;;;;9.60;7.15;;;;;;;13.11;100.00;101960.59;5052381;28;20055;-50
2023/09/26 03:33:18;;;;;;;11.32;8.27;;;;;;;13.10;100.00;101970.31;5050007;28;20084;-54
2023/09/26 03:35:46;;;;;;;12.52;8.10;;;;;;;13.10;100.00;101964.16;5049072;28;20738;-53
2023/09/26 03:38:14;;;;;;;14.35;8.52;;;;;;;13.05;100.00;101968.88;5051769;28;20037;-54
2023/09/26 03:40:43;;;;;;;13.07;8.73;;;;;;;13.03;100.00;101961.03;5051965;28;20044;-54
2023/09/26 03:43:11;;;;;;;11.55;8.30;;;;;;;13.07;100.00;101962.56;5050387;28;20048;-54
2023/09/26 03:45:43;;;;;;;11.63;8.30;;;;;;;13.04;100.00;101959.25;5048466;28;20041;-53
2023/09/26 03:48:11;;;;;;;15.65;8.80;;;;;;;13.00;100.00;101964.69;5050741;28;20049;-54
2023/09/26 03:50:40;;;;;;;11.13;8.80;;;;;;;13.09;100.00;101967.75;5051646;28;20053;-51
2023/09/26 03:53:08;;;;;;;11.02;8.30;;;;;;;13.01;100.00;101961.13;5051729;28;20045;-55
2023/09/26 03:55:38;;;;;;;11.82;8.52;;;;;;;12.97;100.00;101962.25;5049161;28;20103;-55
2023/09/26 03:58:08;;;;;;;12.05;9.20;;;;;;;12.97;100.00;101954.31;5048553;28;20508;-54
2023/09/26 04:00:36;;;;;;;13.20;8.82;;;;;;;12.96;100.00;101952.63;5046919;28;20067;-55
2023/09/26 04:03:05;;;;;;;12.68;9.13;;;;;;;12.93;100.00;101963.38;5050960;28;20049;-54
2023/09/26 04:05:33;;;;;;;13.60;8.32;;;;;;;12.92;100.00;101964.28;5051648;28;20053;-53
2023/09/26 04:08:01;;;;;;;11.45;8.07;;;;;;;12.97;100.00;101972.81;5051736;28;20051;-52
2023/09/26 04:10:29;;;;;;;14.20;9.10;;;;;;;12.88;100.00;101957.47;5051857;28;20385;-54
2023/09/26 04:12:57;;;;;;;12.95;9.27;;;;;;;12.73;100.00;101953.94;5049404;28;20803;-51
2023/09/26 04:15:27;;;;;;;12.63;9.38;;;;;;;12.81;100.00;101964.91;5047892;28;20119;-52
2023/09/26 04:17:55;;;;;;;12.60;9.10;;;;;;;12.80;100.00;101957.94;5047370;28;20132;-52
2023/09/26 04:20:23;;;;;;;10.65;8.57;;;;;;;12.75;100.00;101952.06;5050121;28;20037;-53
2023/09/26 04:23:05;;;;;;;11.98;9.30;;;;;;;12.78;100.00;101951.03;5049329;28;20049;-53
2023/09/26 04:25:34;;;;;;;12.60;9.23;;;;;;;12.68;100.00;101962.13;5046332;28;20473;-52
2023/09/26 04:28:03;;;;;;;13.30;9.43;;;;;;;12.73;100.00;101961.00;5050884;28;20049;-52
2023/09/26 04:30:37;;;;;;;11.60;8.57;;;;;;;12.63;100.00;101950.13;5051409;28;20040;-52
2023/09/26 04:33:06;;;;;;;11.55;8.73;;;;;;;12.62;100.00;101954.53;5051497;28;20447;-53
2023/09/26 04:35:35;;;;;;;12.63;9.48;;;;;;;12.65;100.00;101956.16;5051361;28;20527;-52
2023/09/26 04:38:03;;;;;;;11.73;8.63;;;;;;;12.59;100.00;101953.88;5047284;28;20136;-53
2023/09/26 04:40:32;;;;;;;11.02;9.00;;;;;;;12.65;100.00;101964.94;5045861;28;20991;-54
2023/09/26 04:43:01;;;;;;;12.75;9.68;;;;;;;12.60;100.00;101951.16;5047852;28;20404;-53
2023/09/26 04:45:30;;;;;;;10.80;8.80;;;;;;;12.69;100.00;101947.13;5048975;28;20094;-53
2023/09/26 04:48:01;;;;;;;12.50;9.43;;;;;;;12.61;100.00;101947.56;5049387;28;20041;-52
2023/09/26 04:50:29;;;;;;;13.35;9.55;;;;;;;12.58;100.00;101942.44;5047483;28;20126;-53
2023/09/26 04:52:59;;;;;;;13.45;9.27;;;;;;;12.61;100.00;101947.56;5048972;28;20053;-53
2023/09/26 04:55:27;;;;;;;12.43;10.10;;;;;;;12.56;100.00;101938.22;5046137;28;20053;-52
2023/09/26 04:57:55;;;;;;;13.30;10.00;;;;;;;12.52;100.00;101942.81;5051524;28;20052;-54
2023/09/26 05:00:23;;;;;;;12.43;10.05;;;;;;;12.47;100.00;101939.56;5051388;28;20053;-53
2023/09/26 05:02:52;;;;;;;14.25;11.05;;;;;;;12.41;100.00;101939.94;5051398;28;20052;-53
2023/09/26 05:05:22;;;;;;;13.18;10.70;;;;;;;12.44;100.00;101940.59;5051260;28;20044;-53
2023/09/26 05:07:50;;;;;;;12.88;10.40;;;;;;;12.42;100.00;101947.75;5051801;28;20400;-54
2023/09/26 05:10:18;;;;;;;16.27;11.30;;;;;;;12.40;100.00;101939.06;5049504;28;20053;-55
2023/09/26 05:12:46;;;;;;;15.45;11.27;;;;;;;12.44;100.00;101937.94;5051949;28;20045;-53
2023/09/26 05:15:17;;;;;;;15.20;11.73;;;;;;;12.51;100.00;101935.81;5053224;28;20037;-53
2023/09/26 05:17:48;;;;;;;14.30;10.85;;;;;;;12.55;100.00;101934.72;5054893;28;20099;-53
2023/09/26 05:20:17;;;;;;;14.38;11.30;;;;;;;12.48;100.00;101925.44;5051179;28;20041;-54
2023/09/26 05:22:48;;;;;;;14.05;10.60;;;;;;;12.46;100.00;101933.44;5050372;28;20526;-53
2023/09/26 05:25:17;;;;;;;15.63;10.48;;;;;;;12.37;100.00;101941.88;5049226;28;20106;-54
2023/09/26 05:27:45;;;;;;;14.18;10.82;;;;;;;12.31;100.00;101940.44;5051959;28;20044;-55
2023/09/26 05:30:15;;;;;;;15.07;9.93;;;;;;;12.39;100.00;101947.91;5051405;28;20056;-55
2023/09/26 05:32:43;;;;;;;13.65;10.27;;;;;;;12.32;100.00;101946.53;5050139;28;20408;-55
2023/09/26 05:35:11;;;;;;;12.80;10.25;;;;;;;12.30;100.00;101940.53;5054335;28;20045;-53
2023/09/26 05:37:40;;;;;;;13.00;10.75;;;;;;;12.31;100.00;101937.78;5053974;28;20080;-54
2023/09/26 05:40:10;;;;;;;13.18;9.98;;;;;;;12.39;100.00;101936.50;5053785;28;20048;-54
2023/09/26 05:42:39;;;;;;;12.88;10.20;;;;;;;12.37;100.00;101927.84;5051559;28;20041;-55
2023/09/26 05:45:09;;;;;;;12.80;9.57;;;;;;;12.46;100.00;101938.72;5050141;28;20049;-53
2023/09/26 05:47:37;;;;;;;14.27;9.85;;;;;;;12.41;100.00;101939.94;5051016;28;20123;-52
2023/09/26 05:50:06;;;;;;;13.43;9.65;;;;;;;12.40;100.00;101933.78;5053810;28;20071;-52
2023/09/26 05:52:34;;;;;;;12.63;9.80;;;;;;;12.47;100.00;101929.03;5053543;28;20076;-54
2023/09/26 05:55:03;;;;;;;13.85;9.73;;;;;;;12.47;100.00;101934.28;5050154;28;20061;-54
2023/09/26 05:57:33;;;;;;;15.43;10.77;;;;;;;12.38;100.00;101927.75;5050201;28;20695;-53
2023/09/26 06:00:01;;;;;;;12.73;9.95;;;;;;;12.40;100.00;101932.94;5050209;28;20047;-51
2023/09/26 06:02:29;;;;;;;13.63;10.57;;;;;;;12.44;100.00;101929.19;5050424;28;20405;-54
2023/09/26 06:04:57;;;;;;;15.30;10.73;;;;;;;12.39;100.00;101931.22;5052196;28;20048;-54
2023/09/26 06:07:27;;;;;;;15.45;10.57;;;;;;;12.37;100.00;101930.47;5053834;28;20045;-53
2023/09/26 06:09:58;;;;;;;14.65;10.45;;;;;;;12.32;100.00;101936.88;5053754;28;20044;-54
2023/09/26 06:12:39;;;;;;;16.02;11.30;;;;;;;12.38;100.00;101938.31;5053756;28;20087;-54
2023/09/26 06:15:08;;;;;;;15.10;10.38;;;;;;;12.41;100.00;101947.84;5051953;28;20106;-53
2023/09/26 06:17:37;;;;;;;13.70;10.73;;;;;;;12.46;100.00;101951.06;5050288;28;20067;-54
2023/09/26 06:20:09;;;;;;;14.90;10.63;;;;;;;12.48;100.00;101942.13;5049965;28;20059;-52
2023/09/26 06:22:38;;;;;;;13.93;10.77;;;;;;;12.56;100.00;101948.78;5049998;28;20706;-52
2023/09/26 06:25:07;;;;;;;15.25;11.32;;;;;;;12.55;100.00;101947.91;5048879;28;20048;-53
2023/09/26 06:27:36;;;;;;;13.45;10.65;;;;;;;12.63;100.00;101950.97;5048443;28;20044;-54
2023/09/26 06:30:07;;;;;;;13.85;10.75;;;;;;;12.65;100.00;101954.38;5050040;28;20045;-53
2023/09/26 06:32:35;;;;;;;14.70;10.73;;;;;;;12.61;100.00;101955.50;5051939;28;20080;-52
2023/09/26 06:35:04;;;;;;;14.55;11.23;;;;;;;12.70;100.00;101948.00;5053125;28;20059;-53
2023/09/26 06:37:32;;;;;;;13.95;10.85;;;;;;;12.69;100.00;101947.13;5052507;28;20053;-52
2023/09/26 06:40:04;;;;;;;12.80;9.65;;;;;;;12.72;100.00;101946.09;5048716;28;20049;-52
2023/09/26 06:42:33;;;;;;;14.25;10.70;;;;;;;12.76;100.00;101942.34;5049711;28;20089;-53
2023/09/26 06:45:04;;;;;;;15.50;10.07;;;;;;;12.78;100.00;101948.41;5049753;28;20049;-53
2023/09/26 06:47:33;;;;;;;16.60;10.43;;;;;;;12.75;100.00;101949.44;5049057;28;20538;-53
2023/09/26 06:50:02;;;;;;;15.88;10.13;;;;;;;12.84;100.00;101950.69;5049052;28;20041;-52
2023/09/26 06:52:31;;;;;;;14.05;10.48;;;;;;;12.80;100.00;101951.78;5050204;28;20473;-51
2023/09/26 06:54:59;;;;;;;15.25;10.80;;;;;;;12.89;100.00;101950.44;5052797;28;20056;-52
2023/09/26 06:57:27;;;;;;;14.88;10.60;;;;;;;12.87;100.00;101952.31;5052852;28;20771;-52
2023/09/26 06:59:55;;;;;;;15.27;10.40;;;;;;;12.91;100.00;101945.91;5049965;28;20053;-53
2023/09/26 07:02:24;;;;;;;13.98;10.15;;;;;;;12.96;100.00;101947.34;5049203;28;20403;-53
2023/09/26 07:04:55;;;;;;;13.15;10.18;;;;;;;13.05;100.00;101959.19;5051343;28;20044;-53
2023/09/26 07:07:24;;;;;;;16.60;10.35;;;;;;;13.07;100.00;101952.00;5049026;28;20063;-54
2023/09/26 07:09:52;;;;;;;12.55;9.80;;;;;;;13.16;100.00;101946.19;5048252;28;20060;-53
2023/09/26 07:12:21;;;;;;;13.27;9.73;;;;;;;13.19;100.00;101946.00;5051361;28;20045;-52
2023/09/26 07:14:51;;;;;;;16.90;10.20;;;;;;;13.25;100.00;101942.16;5048453;28;20064;-54
2023/09/26 07:17:19;;;;;;;17.58;10.23;;;;;;;13.34;100.00;101946.88;5048514;28;20508;-51
2023/09/26 07:19:48;;;;;;;19.65;9.98;;;;;;;13.46;100.00;101944.50;5048557;28;20051;-53
2023/09/26 07:22:18;;;;;;;14.80;10.27;;;;;;;13.56;100.00;101936.88;5050958;28;20045;-54
2023/09/26 07:24:49;;;;;;;13.98;9.27;;;;;;;13.61;100.00;101937.44;5049053;28;20147;-51
2023/09/26 07:27:18;;;;;;;13.15;9.95;;;;;;;13.64;100.00;101931.97;5048608;28;20492;-52
2023/09/26 07:29:47;;;;;;;14.98;10.35;;;;;;;13.67;100.00;101930.00;5051076;28;20137;-50
2023/09/26 07:32:15;;;;;;;13.02;10.40;;;;;;;13.71;100.00;101932.44;5052234;28;20048;-51
2023/09/26 07:34:46;;;;;;;13.65;10.27;;;;;;;13.78;100.00;101934.59;5052378;28;20396;-52
2023/09/26 07:37:18;;;;;;;14.38;10.38;;;;;;;13.86;100.00;101939.41;5049752;28;20128;-54
2023/09/26 07:39:51;;;;;;;14.68;9.95;;;;;;;13.93;100.00;101940.72;5047164;28;20071;-53
2023/09/26 07:42:19;;;;;;;18.48;10.45;;;;;;;14.03;100.00;101941.88;5048005;28;20053;-53
2023/09/26 07:44:47;;;;;;;15.35;9.98;;;;;;;14.12;100.00;101953.66;5048823;28;20049;-53
2023/09/26 07:47:15;;;;;;;12.90;9.80;;;;;;;14.24;100.00;101948.56;5046628;28;20063;-51
2023/09/26 07:49:44;;;;;;;14.10;9.85;;;;;;;14.36;100.00;101945.97;5051073;28;20049;-50
2023/09/26 07:52:15;;;;;;;11.93;9.35;;;;;;;14.50;100.00;101950.38;5048604;28;20049;-52
2023/09/26 07:54:45;;;;;;;14.57;10.30;;;;;;;14.54;100.00;101943.09;5047409;28;20061;-50
2023/09/26 07:57:13;;;;;;;14.05;9.35;;;;;;;14.64;100.00;101933.66;5050434;28;20754;-52
2023/09/26 07:59:41;;;;;;;12.95;9.00;;;;;;;14.70;100.00;101930.59;5046757;28;20041;-53
2023/09/26 08:02:10;;;;;;;11.98;8.45;;;;;;;14.82;100.00;101936.03;5047125;28;20659;-50
2023/09/26 08:04:38;;;;;;;12.23;9.40;;;;;;;15.00;100.00;101937.47;5048856;28;20165;-51
2023/09/26 08:07:06;;;;;;;13.40;8.68;;;;;;;14.96;100.00;101935.13;5048434;28;20053;-51
2023/09/26 08:09:34;;;;;;;14.27;8.60;;;;;;;15.04;100.00;101938.13;5048118;28;20817;-51
2023/09/26 08:12:05;;;;;;;11.15;7.78;;;;;;;15.16;100.00;101939.06;5049006;28;20128;-52
2023/09/26 08:14:33;;;;;;;12.18;8.30;;;;;;;15.21;100.00;101936.97;5051495;28;20106;-50
2023/09/26 08:17:01;;;;;;;14.20;8.38;;;;;;;15.22;100.00;101928.06;5048415;28;20385;-53
2023/09/26 08:19:29;;;;;;;12.88;8.10;;;;;;;15.42;100.00;101941.75;5048492;28;20057;-52
2023/09/26 08:21:57;;;;;;;14.35;8.10;;;;;;;15.42;100.00;101939.97;5051366;28;20526;-51
2023/09/26 08:24:25;;;;;;;10.75;8.57;;;;;;;15.45;100.00;101937.09;5051494;28;20040;-51
2023/09/26 08:26:54;;;;;;;12.18;7.43;;;;;;;15.57;100.00;101937.22;5051495;28;20060;-53
2023/09/26 08:29:24;;;;;;;11.52;7.38;;;;;;;15.64;100.00;101947.28;5051559;28;20584;-53
2023/09/26 08:31:52;;;;;;;11.85;7.70;;;;;;;15.69;100.00;101946.97;5052659;28;20041;-56
2023/09/26 08:34:20;;;;;;;13.00;7.70;;;;;;;15.76;100.00;101936.78;5052492;28;20045;-53
2023/09/26 08:36:49;;;;;;;13.57;7.38;;;;;;;15.86;100.00;101932.56;5051946;28;20045;-53
2023/09/26 08:39:17;;;;;;;12.43;7.85;;;;;;;15.96;100.00;101933.59;5051737;28;20132;-52
2023/09/26 08:41:45;;;;;;;12.32;7.50;;;;;;;16.02;100.00;101930.53;5051229;28;20144;-53
2023/09/26 08:44:15;;;;;;;12.10;6.78;;;;;;;16.03;100.00;101921.63;5054134;28;20175;-53
2023/09/26 08:46:46;;;;;;;12.18;7.45;;;;;;;16.15;100.00;101917.22;5051913;28;20049;-52
2023/09/26 08:49:15;;;;;;;9.80;6.88;;;;;;;16.32;100.00;101917.81;5051599;28;20049;-52
2023/09/26 08:51:43;;;;;;;12.48;7.18;;;;;;;16.48;100.00;101907.75;5051698;28;20059;-53
2023/09/26 08:54:11;;;;;;;11.57;7.50;;;;;;;16.53;100.00;101902.97;5051893;28;20484;-54
2023/09/26 08:56:40;;;;;;;12.15;7.13;;;;;;;16.61;100.00;101897.09;5050838;28;20111;-54
2023/09/26 08:59:12;;;;;;;11.57;7.68;;;;;;;16.70;100.00;101901.72;5052291;28;20115;-52
2023/09/26 09:01:41;;;;;;;10.57;7.10;;;;;;;16.90;100.00;101907.38;5051562;28;20045;-52
2023/09/26 09:04:11;;;;;;;11.60;7.00;;;;;;;16.94;100.00;101908.00;5053000;28;20052;-53
2023/09/26 09:06:39;;;;;;;11.88;7.55;;;;;;;17.11;100.00;101898.72;5050975;28;20053;-51
2023/09/26 09:09:10;;;;;;;10.50;7.35;;;;;;;17.23;100.00;101903.09;5053867;28;20120;-52
2023/09/26 09:11:38;;;;;;;9.20;6.45;;;;;;;17.30;100.00;101904.34;5053650;28;20530;-52
2023/09/26 09:14:07;;;;;;;11.10;6.93;;;;;;;17.54;100.00;101896.25;5054716;28;20053;-52
2023/09/26 09:16:36;;;;;;;9.82;6.72;;;;;;;17.62;100.00;101902.81;5051888;28;20061;-54
2023/09/26 09:19:06;;;;;;;10.63;7.00;;;;;;;17.74;100.00;101910.66;5050125;28;20532;-52
2023/09/26 09:21:35;;;;;;;11.48;6.65;;;;;;;17.95;100.00;101904.63;5050807;28;20107;-53
2023/09/26 09:24:06;;;;;;;9.05;6.38;;;;;;;18.09;100.00;101911.50;5053887;28;20098;-54
2023/09/26 09:26:36;;;;;;;10.95;6.43;;;;;;;18.29;100.00;101915.22;5049154;28;20135;-51
2023/09/26 09:29:17;;;;;;;12.35;6.30;;;;;;;18.45;100.00;101912.16;5051262;28;20143;-53
2023/09/26 09:31:48;;;;;;;9.63;6.10;;;;;;;18.59;100.00;101913.69;5054525;28;20430;-53
2023/09/26 09:34:17;;;;;;;10.43;6.60;;;;;;;18.67;100.00;101908.56;5054298;28;20085;-52
2023/09/26 09:36:46;;;;;;;9.65;6.05;;;;;;;18.78;100.00;101912.16;5054288;28;20034;-54
2023/09/26 09:39:19;;;;;;;10.65;6.03;;;;;;;19.01;100.00;101908.44;5052921;28;20140;-52
2023/09/26 09:41:48;;;;;;;10.50;6.93;;;;;;;19.37;100.00;101911.63;5052804;28;20459;-52
2023/09/26 09:44:17;;;;;;;9.57;6.20;;;;;;;19.57;100.00;101903.72;5054126;28;20049;-53
2023/09/26 09:46:48;;;;;;;9.98;6.45;;;;;;;19.52;100.00;101903.25;5054084;28;20049;-53
2023/09/26 09:49:22;;;;;;;11.25;6.60;;;;;;;19.66;100.00;101891.38;5054241;28;20451;-52
2023/09/26 09:51:56;;;;;;;9.95;5.93;;;;;;;19.80;100.00;101890.19;5053698;28;20040;-54
2023/09/26 09:54:32;;;;;;;10.27;6.22;;;;;;;19.99;100.00;101887.59;5052831;28;20381;-53
2023/09/26 09:57:02;;;;;;;9.55;6.30;;;;;;;20.42;100.00;101889.09;5052831;28;20049;-53
2023/09/26 09:59:35;;;;;;;11.00;6.53;;;;;;;20.31;100.00;101894.53;5052698;28;20044;-53
2023/09/26 10:02:04;;;;;;;10.50;6.03;;;;;;;20.55;100.00;101901.34;5052765;28;20047;-54
2023/09/26 10:04:34;;;;;;;11.07;5.85;;;;;;;20.71;100.00;101896.28;5052867;28;20045;-54
2023/09/26 10:07:05;;;;;;;8.70;5.18;;;;;;;20.67;100.00;101894.84;5051125;28;20052;-54
2023/09/26 10:09:35;;;;;;;9.13;5.75;;;;;;;20.90;100.00;101891.91;5052670;28;20524;-53
2023/09/26 10:12:04;;;;;;;10.07;6.07;;;;;;;20.92;100.00;101887.28;5052417;28;20048;-49
2023/09/26 10:14:33;;;;;;;8.82;5.65;;;;;;;21.16;100.00;101885.94;5052376;28;20043;-55
2023/09/26 10:17:02;;;;;;;10.35;5.72;;;;;;;21.55;100.00;101880.50;5052664;28;20041;-53
2023/09/26 10:19:32;;;;;;;9.75;5.90;;;;;;;21.77;100.00;101877.47;5052416;28;20136;-52
2023/09/26 10:22:19;;;;;;;12.02;5.85;;;;;;;22.08;100.00;101871.75;5052309;28;20480;-54
2023/09/26 10:24:49;;;;;;;10.55;5.70;;;;;;;22.22;100.00;101865.06;5052511;28;20103;-52
2023/09/26 10:27:38;;;;;;;12.15;5.72;;;;;;;22.35;100.00;101872.75;5052274;28;20128;-52
2023/09/26 10:30:28;;;;;;;12.77;5.45;;;;;;;22.52;100.00;101871.03;5052473;28;20041;-53
2023/09/26 10:32:56;;;;;;;8.73;5.10;;;;;;;22.45;100.00;101870.84;5052212;28;20041;-54
2023/09/26 10:35:28;;;;;;;9.48;5.40;;;;;;;22.26;100.00;101863.78;5052022;28;20076;-53
2023/09/26 10:38:12;;;;;;;10.35;5.57;;;;;;;22.62;100.00;101862.94;5052145;28;20407;-53
2023/09/26 10:40:40;;;;;;;10.75;5.25;;;;;;;22.71;100.00;101869.19;5052279;28;20053;-54
2023/09/26 10:43:08;;;;;;;9.88;5.88;;;;;;;22.68;100.00;101867.66;5050424;28;20047;-53
2023/09/26 10:45:57;;;;;;;10.35;5.32;;;;;;;22.90;100.00;101868.19;5050451;28;20056;-53
2023/09/26 10:48:25;;;;;;;8.98;6.00;;;;;;;22.72;100.00;101870.91;5049482;28;20051;-54
2023/09/26 10:50:54;;;;;;;8.93;5.25;;;;;;;22.89;100.00;101863.81;5050389;28;20049;-52
2023/09/26 10:53:37;;;;;;;9.07;5.25;;;;;;;22.94;100.00;101866.88;5129748;27;20585;-55
2023/09/26 10:56:06;;;;;;;8.55;4.97;;;;;;;23.03;100.00;101855.19;5129924;27;20055;-52
2023/09/26 10:58:34;;;;;;;8.77;5.15;;;;;;;22.92;100.00;101860.81;5130070;27;20386;-53
2023/09/26 11:01:02;;;;;;;9.07;5.47;;;;;;;22.81;100.00;101861.94;5130045;27;20048;-52
2023/09/26 11:03:31;;;;;;;13.05;6.10;;;;;;;22.76;100.00;101853.50;5129907;27;20053;-53
2023/09/26 11:05:59;;;;;;;9.25;5.95;;;;;;;22.83;100.00;101854.53;5128050;28;20054;-54
2023/09/26 11:08:31;;;;;;;9.57;5.85;;;;;;;22.87;100.00;101845.19;5129939;27;20043;-53
2023/09/26 11:11:01;;;;;;;11.57;5.43;;;;;;;22.88;100.00;101852.25;5129823;27;20036;-53
2023/09/26 11:13:29;;;;;;;8.80;5.68;;;;;;;22.90;100.00;101855.59;5129484;27;20155;-53
2023/09/26 11:15:58;;;;;;;11.13;5.55;;;;;;;23.16;100.00;101862.84;5129645;27;20505;-53
2023/09/26 11:18:26;;;;;;;8.52;5.25;;;;;;;23.22;100.00;101846.13;5129605;27;20058;-53
2023/09/26 11:20:54;;;;;;;8.60;5.10;;;;;;;23.40;100.00;101847.91;5128455;27;20050;-52